Terminal Aerodrome Forecast
Issued by NWS

Home | Current Version | Previous Version | Text Only | Print | Product List | Glossary On
Versions: 1 2 3 4 5 6 7 8 9 10 11 12 13 14 15 16 17 18 19 20 21 22
264
FTUS45 KABQ 201129
TAFFMN
TAF
KFMN 201129Z 2012/2112 27008KT P6SM VCSH SCT035 BKN050
     FM201900 27013G20KT P6SM OVC050
     FM202200 26013G20KT P6SM VCSH SCT025 OVC040
     FM210200 12010KT 3SM -SN BR OVC015=

USA.gov is the U.S. government's official web portal to all federal, state and local government web resources and services.